Time;durP1;ratioP1;P1;durP2;ratioP2;P2;SDS_P1;SDS_P2;PMS_P1;PMS_P2;Temp;Humidity;BMP_temperature;BMP_pressure;BME280_temperature;BME280_humidity;BME280_pressure;Samples;Min_cycle;Max_cycle;Signal;HPM_P1;HPM_P2
2021/06/28 00:00:40;;;;;;;0.10;0.10;;;18.70;87.20;;;;;;4952498;28;20038;-77
2021/06/28 00:03:06;;;;;;;0.10;0.10;;;18.70;87.20;;;;;;4952260;29;20107;-77
2021/06/28 00:05:32;;;;;;;0.10;0.10;;;18.70;87.50;;;;;;4919319;28;20126;-77
2021/06/28 00:07:58;;;;;;;0.10;0.10;;;18.90;87.00;;;;;;4934841;28;20030;-77
2021/06/28 00:10:26;;;;;;;1.10;1.00;;;19.00;85.90;;;;;;4935145;29;20031;-77
2021/06/28 00:12:53;;;;;;;0.10;0.10;;;19.10;85.10;;;;;;4952094;28;20356;-77
2021/06/28 00:15:23;;;;;;;0.10;0.10;;;19.20;86.10;;;;;;4919287;28;20097;-77
2021/06/28 00:17:50;;;;;;;0.10;0.10;;;19.20;86.00;;;;;;4952086;29;20027;-77
2021/06/28 00:20:17;;;;;;;0.10;0.10;;;19.20;86.10;;;;;;4934903;28;20036;-77
2021/06/28 00:22:44;;;;;;;0.10;0.10;;;19.30;85.70;;;;;;4934830;29;20081;-77
2021/06/28 00:25:13;;;;;;;0.10;0.10;;;19.40;85.00;;;;;;4951979;29;20023;-77
2021/06/28 00:27:40;;;;;;;0.10;0.10;;;19.10;86.10;;;;;;4934543;28;20035;-77
2021/06/28 00:30:08;;;;;;;0.10;0.10;;;19.00;87.20;;;;;;4918917;28;20118;-77
2021/06/28 00:32:35;;;;;;;0.10;0.10;;;18.90;87.10;;;;;;4951696;28;20019;-76
2021/06/28 00:35:01;;;;;;;0.10;0.10;;;18.90;88.80;;;;;;4951851;29;20031;-77
2021/06/28 00:37:27;;;;;;;0.15;0.15;;;18.80;88.20;;;;;;4934324;28;20486;-77
2021/06/28 00:39:53;;;;;;;0.10;0.10;;;18.70;88.80;;;;;;4951856;28;20085;-77
2021/06/28 00:42:21;;;;;;;0.15;0.15;;;18.70;89.00;;;;;;4951729;29;20035;-73
2021/06/28 00:44:48;;;;;;;0.60;0.60;;;18.50;90.00;;;;;;4950431;28;20055;-73
2021/06/28 00:47:14;;;;;;;0.10;0.10;;;18.30;90.80;;;;;;4950479;28;20032;-73
2021/06/28 00:49:39;;;;;;;0.10;0.10;;;18.40;90.70;;;;;;4951704;28;20023;-73
2021/06/28 00:52:05;;;;;;;0.00;0.00;;;18.70;90.30;;;;;;4951547;29;20390;-76
2021/06/28 00:54:32;;;;;;;0.10;0.10;;;18.60;90.20;;;;;;4951602;29;20027;-75
2021/06/28 00:56:57;;;;;;;0.10;0.10;;;18.70;90.50;;;;;;4951533;29;20023;-75
2021/06/28 00:59:24;;;;;;;0.10;0.10;;;18.60;91.00;;;;;;4951423;28;20031;-75
2021/06/28 01:01:50;;;;;;;0.10;0.10;;;18.10;92.30;;;;;;5017324;28;20031;-75
2021/06/28 01:04:16;;;;;;;0.38;0.38;;;18.00;93.20;;;;;;4950391;28;20028;-75
2021/06/28 01:06:41;;;;;;;0.28;0.28;;;18.00;94.00;;;;;;4934475;28;20081;-75
2021/06/28 01:09:07;;;;;;;0.10;0.10;;;17.90;95.10;;;;;;4951239;29;20027;-75
2021/06/28 01:11:33;;;;;;;0.30;0.30;;;17.80;96.70;;;;;;4951889;28;20027;-75
2021/06/28 01:13:59;;;;;;;0.10;0.10;;;17.70;98.90;;;;;;4951663;28;20141;-75
2021/06/28 01:16:25;;;;;;;0.13;0.13;;;17.70;99.90;;;;;;4951286;28;20047;-75
2021/06/28 01:18:51;;;;;;;0.10;0.10;;;17.70;99.90;;;;;;4933906;28;20035;-75
2021/06/28 01:21:18;;;;;;;2.22;0.38;;;17.80;99.90;;;;;;4951130;29;20035;-75
2021/06/28 01:23:44;;;;;;;0.57;0.32;;;17.80;99.90;;;;;;4951174;29;20031;-75
2021/06/28 01:26:11;;;;;;;0.43;0.43;;;17.70;99.90;;;;;;4949798;29;20027;-75
2021/06/28 01:28:39;;;;;;;0.10;0.10;;;17.50;99.90;;;;;;4950839;29;20032;-75
2021/06/28 01:31:07;;;;;;;0.20;0.20;;;17.60;99.90;;;;;;4951198;29;20034;-75
2021/06/28 01:33:33;;;;;;;0.10;0.10;;;17.80;99.90;;;;;;4951138;28;20156;-75
2021/06/28 01:35:59;;;;;;;0.15;0.15;;;17.80;99.90;;;;;;4951059;29;20023;-75
2021/06/28 01:38:25;;;;;;;0.10;0.10;;;17.80;99.90;;;;;;4950831;28;20046;-75
2021/06/28 01:40:53;;;;;;;0.10;0.10;;;17.80;99.90;;;;;;4950590;29;20061;-75
2021/06/28 01:43:23;;;;;;;0.10;0.10;;;17.90;99.90;;;;;;4933694;28;20425;-75
2021/06/28 01:45:48;;;;;;;0.10;0.10;;;18.10;99.90;;;;;;4950924;29;20046;-75
2021/06/28 01:48:14;;;;;;;0.10;0.10;;;18.20;99.90;;;;;;4933525;29;20502;-75
2021/06/28 01:50:42;;;;;;;0.10;0.10;;;18.30;99.90;;;;;;4950843;28;20023;-75
2021/06/28 01:53:08;;;;;;;0.10;0.10;;;18.50;99.90;;;;;;4933639;29;20023;-75
2021/06/28 01:55:35;;;;;;;0.10;0.10;;;18.60;99.90;;;;;;4933750;28;20380;-75
2021/06/28 01:58:03;;;;;;;0.20;0.20;;;18.70;99.90;;;;;;4950527;28;20038;-75
2021/06/28 02:00:38;;;;;;;0.10;0.10;;;18.80;99.90;;;;;;4953859;29;20102;-75
2021/06/28 02:03:10;;;;;;;0.10;0.10;;;18.70;99.90;;;;;;4953989;29;20511;-75
2021/06/28 02:05:42;;;;;;;0.10;0.10;;;18.60;99.90;;;;;;4954150;29;20454;-75
2021/06/28 02:08:11;;;;;;;0.13;0.13;;;18.50;99.90;;;;;;4953735;29;20035;-75
2021/06/28 02:10:40;;;;;;;0.10;0.10;;;18.50;99.90;;;;;;4936822;28;20549;-75
2021/06/28 02:13:06;;;;;;;0.10;0.10;;;18.40;99.90;;;;;;4953801;29;20418;-75
2021/06/28 02:15:32;;;;;;;0.10;0.10;;;18.30;99.90;;;;;;4954016;28;20087;-75
2021/06/28 02:17:59;;;;;;;1.77;0.28;;;18.40;99.90;;;;;;5020214;28;20510;-75
2021/06/28 02:20:26;;;;;;;0.10;0.10;;;18.40;99.90;;;;;;4953803;28;20114;-75
2021/06/28 02:22:53;;;;;;;0.17;0.17;;;18.40;99.90;;;;;;4953818;29;20081;-75
2021/06/28 02:25:20;;;;;;;0.10;0.10;;;18.30;99.90;;;;;;4936570;28;20031;-75
2021/06/28 02:27:47;;;;;;;0.03;0.03;;;18.20;99.90;;;;;;4953487;28;20093;-75
2021/06/28 02:30:15;;;;;;;0.32;0.32;;;18.20;99.90;;;;;;4936470;28;20390;-75
2021/06/28 02:32:42;;;;;;;0.00;0.00;;;18.10;99.90;;;;;;4953549;29;20478;-75
2021/06/28 02:35:11;;;;;;;0.10;0.10;;;18.20;99.90;;;;;;4936438;29;20061;-75
2021/06/28 02:37:38;;;;;;;0.10;0.10;;;18.30;99.90;;;;;;5019851;28;20088;-75
2021/06/28 02:40:07;;;;;;;2.17;0.40;;;18.30;99.90;;;;;;4953596;29;20651;-75
2021/06/28 02:42:32;;;;;;;0.28;0.28;;;18.40;99.90;;;;;;4936244;28;20034;-75
2021/06/28 02:44:58;;;;;;;0.00;0.00;;;18.30;99.90;;;;;;4920350;29;20027;-75
2021/06/28 02:47:24;;;;;;;0.10;0.10;;;18.30;99.90;;;;;;4953478;28;20410;-75
2021/06/28 02:49:49;;;;;;;0.10;0.10;;;18.40;99.90;;;;;;5019842;28;20024;-75
2021/06/28 02:52:15;;;;;;;0.10;0.10;;;18.70;99.90;;;;;;5019940;28;20047;-75
2021/06/28 02:54:41;;;;;;;0.10;0.10;;;18.80;99.90;;;;;;4952163;28;20020;-75
2021/06/28 02:57:07;;;;;;;0.20;0.20;;;18.90;99.90;;;;;;5019732;28;20027;-75
2021/06/28 02:59:32;;;;;;;0.10;0.10;;;18.90;99.90;;;;;;4953185;28;20077;-75
2021/06/28 03:01:58;;;;;;;0.20;0.20;;;19.00;99.90;;;;;;4953207;28;20506;-75
2021/06/28 03:04:24;;;;;;;0.20;0.20;;;18.50;99.90;;;;;;4953282;28;20028;-75
2021/06/28 03:06:50;;;;;;;0.10;0.10;;;18.20;99.90;;;;;;4953074;29;20031;-75
2021/06/28 03:09:15;;;;;;;0.10;0.10;;;18.00;99.90;;;;;;4953065;28;20506;-75
2021/06/28 03:11:41;;;;;;;0.10;0.10;;;18.00;99.90;;;;;;4935203;28;20114;-75
2021/06/28 03:14:07;;;;;;;0.10;0.10;;;18.00;99.90;;;;;;4919968;28;20031;-75
2021/06/28 03:16:33;;;;;;;0.10;0.10;;;17.90;99.90;;;;;;4952035;28;20526;-75
2021/06/28 03:19:00;;;;;;;0.10;0.10;;;17.90;99.90;;;;;;4953066;28;20035;-75
2021/06/28 03:21:25;;;;;;;0.20;0.20;;;17.90;99.90;;;;;;4935760;29;20031;-75
2021/06/28 03:23:51;;;;;;;0.10;0.10;;;17.90;99.90;;;;;;4952985;28;20395;-75
2021/06/28 03:26:17;;;;;;;0.10;0.10;;;17.80;99.90;;;;;;4935765;29;20039;-75
2021/06/28 03:28:43;;;;;;;0.10;0.10;;;17.70;99.90;;;;;;4952883;28;20027;-75
2021/06/28 03:31:09;;;;;;;0.45;0.45;;;17.80;99.90;;;;;;4952876;29;20098;-75
2021/06/28 03:33:36;;;;;;;0.15;0.15;;;17.80;99.90;;;;;;4935623;29;20387;-75
2021/06/28 03:36:03;;;;;;;0.25;0.25;;;17.50;99.90;;;;;;4952776;28;20030;-75
2021/06/28 03:38:29;;;;;;;0.10;0.10;;;17.50;99.90;;;;;;4952955;28;20489;-75
2021/06/28 03:40:55;;;;;;;0.10;0.10;;;17.50;99.90;;;;;;4952504;28;20035;-75
2021/06/28 03:43:20;;;;;;;0.10;0.10;;;17.60;99.90;;;;;;4919556;28;20035;-75
2021/06/28 03:45:47;;;;;;;0.10;0.10;;;17.80;99.90;;;;;;4935509;29;20110;-75
2021/06/28 03:48:13;;;;;;;0.10;0.10;;;17.80;99.90;;;;;;4952349;29;20030;-75
2021/06/28 03:50:41;;;;;;;0.10;0.10;;;17.80;99.90;;;;;;4952547;29;20032;-75
2021/06/28 03:53:08;;;;;;;0.20;0.20;;;17.90;99.90;;;;;;5002017;28;20345;-75
2021/06/28 03:55:34;;;;;;;0.30;0.30;;;17.90;99.90;;;;;;4935276;29;20483;-75
2021/06/28 03:58:00;;;;;;;0.10;0.10;;;17.80;99.90;;;;;;4952369;28;20027;-75
2021/06/28 04:00:28;;;;;;;0.47;0.47;;;17.70;99.90;;;;;;4935147;29;20035;-75
2021/06/28 04:02:55;;;;;;;0.95;0.95;;;17.60;99.90;;;;;;4952276;29;20491;-75
2021/06/28 04:05:22;;;;;;;0.10;0.10;;;17.50;99.90;;;;;;4952204;28;20027;-75
2021/06/28 04:07:52;;;;;;;0.20;0.20;;;17.50;99.90;;;;;;4952044;29;20383;-75
2021/06/28 04:10:21;;;;;;;1.38;0.68;;;17.50;99.90;;;;;;4919095;29;20352;-75
2021/06/28 04:12:49;;;;;;;0.60;0.60;;;17.40;99.90;;;;;;4935045;28;20374;-75
2021/06/28 04:15:16;;;;;;;0.40;0.40;;;17.20;99.90;;;;;;4935077;29;20054;-75
2021/06/28 04:17:45;;;;;;;0.10;0.10;;;17.10;99.90;;;;;;4951876;29;20548;-75
2021/06/28 04:20:14;;;;;;;0.55;0.50;;;17.20;99.90;;;;;;4951970;28;20031;-75
2021/06/28 04:22:40;;;;;;;9.23;0.68;;;17.30;99.90;;;;;;4951706;29;20560;-75
2021/06/28 04:25:10;;;;;;;0.40;0.38;;;17.40;99.90;;;;;;4934842;29;20505;-75
2021/06/28 04:27:35;;;;;;;0.38;0.38;;;17.40;99.90;;;;;;4951624;29;20055;-75
2021/06/28 04:30:03;;;;;;;2.03;0.63;;;17.50;99.90;;;;;;4951972;28;20498;-75
2021/06/28 04:32:29;;;;;;;0.30;0.30;;;17.60;99.90;;;;;;4934707;29;20054;-75
2021/06/28 04:34:57;;;;;;;0.35;0.35;;;17.60;99.90;;;;;;4951869;28;20024;-75
2021/06/28 04:37:24;;;;;;;0.10;0.10;;;17.70;99.90;;;;;;4934370;29;20073;-75
2021/06/28 04:39:50;;;;;;;0.20;0.20;;;17.80;99.90;;;;;;4934556;29;20030;-75
2021/06/28 04:42:15;;;;;;;0.15;0.15;;;18.00;99.90;;;;;;4950823;28;20505;-75
2021/06/28 04:44:41;;;;;;;0.10;0.10;;;18.20;99.90;;;;;;4951829;28;20031;-75
2021/06/28 04:47:07;;;;;;;0.10;0.10;;;18.30;99.90;;;;;;4934455;28;20076;-75
2021/06/28 04:49:33;;;;;;;0.22;0.22;;;18.50;99.90;;;;;;4951553;29;20023;-75
2021/06/28 04:51:58;;;;;;;0.10;0.10;;;18.60;99.90;;;;;;4950433;28;20050;-75
2021/06/28 04:54:24;;;;;;;0.20;0.20;;;18.70;99.90;;;;;;4949509;28;20027;-75
2021/06/28 04:56:50;;;;;;;0.10;0.10;;;18.80;99.90;;;;;;4951499;29;20024;-75
2021/06/28 04:59:17;;;;;;;0.13;0.13;;;18.90;99.90;;;;;;4933996;29;20045;-75
2021/06/28 05:01:43;;;;;;;0.10;0.10;;;19.10;99.90;;;;;;4951150;29;20027;-75
2021/06/28 05:04:09;;;;;;;0.10;0.10;;;19.10;99.90;;;;;;4951323;29;20534;-75
2021/06/28 05:06:35;;;;;;;0.10;0.10;;;19.20;99.90;;;;;;4917950;28;20050;-75
2021/06/28 05:09:01;;;;;;;0.10;0.10;;;19.40;99.90;;;;;;4995945;28;20468;-75
2021/06/28 05:11:27;;;;;;;0.10;0.10;;;19.50;99.90;;;;;;5001490;22;20039;-73
2021/06/28 05:13:53;;;;;;;0.57;0.57;;;19.60;99.90;;;;;;4950720;29;20054;-73
2021/06/28 05:16:18;;;;;;;0.20;0.20;;;19.80;99.90;;;;;;4951454;29;20103;-73
2021/06/28 05:18:44;;;;;;;0.20;0.20;;;19.90;99.90;;;;;;4951201;28;20114;-73
2021/06/28 05:21:10;;;;;;;0.10;0.10;;;20.00;99.90;;;;;;4951362;29;20035;-73
2021/06/28 05:23:36;;;;;;;0.10;0.10;;;20.00;99.90;;;;;;4950797;28;20453;-73
2021/06/28 05:26:02;;;;;;;0.00;0.00;;;19.90;99.90;;;;;;4951296;29;20027;-73
2021/06/28 05:28:27;;;;;;;0.00;0.00;;;20.10;99.90;;;;;;4950908;29;20036;-73
2021/06/28 05:30:53;;;;;;;0.10;0.10;;;20.20;99.90;;;;;;4951167;29;20023;-73
2021/06/28 05:33:19;;;;;;;0.08;0.08;;;20.30;99.90;;;;;;4919236;28;20023;-73
2021/06/28 05:35:45;;;;;;;0.10;0.10;;;20.40;99.90;;;;;;4957547;29;20030;-73
2021/06/28 05:38:11;;;;;;;0.32;0.20;;;20.40;99.90;;;;;;4957614;28;20027;-73
2021/06/28 05:40:36;;;;;;;0.10;0.10;;;20.40;99.90;;;;;;4957595;28;20037;-73
2021/06/28 05:43:02;;;;;;;0.00;0.00;;;20.40;99.90;;;;;;4957486;29;20067;-73
2021/06/28 05:45:28;;;;;;;0.10;0.10;;;20.60;99.90;;;;;;4957315;29;20030;-73
2021/06/28 05:47:54;;;;;;;0.00;0.00;;;20.80;99.90;;;;;;4957190;28;20390;-73
2021/06/28 05:50:21;;;;;;;0.00;0.00;;;20.80;99.90;;;;;;4957922;29;20474;-73
2021/06/28 05:52:47;;;;;;;0.10;0.10;;;21.10;99.90;;;;;;4940009;28;20456;-73
2021/06/28 05:55:14;;;;;;;0.10;0.10;;;21.20;99.90;;;;;;4959493;28;20023;-73
2021/06/28 05:57:40;;;;;;;0.28;0.28;;;21.30;99.90;;;;;;4961484;28;20035;-73
2021/06/28 06:00:08;;;;;;;0.10;0.10;;;21.30;99.90;;;;;;4957443;28;20024;-73
2021/06/28 06:02:34;;;;;;;0.10;0.10;;;21.30;99.90;;;;;;4957169;29;20033;-73
2021/06/28 06:05:00;;;;;;;0.00;0.00;;;21.40;99.90;;;;;;4957231;28;20035;-73
2021/06/28 06:07:26;;;;;;;0.10;0.10;;;21.60;99.90;;;;;;4957282;28;20036;-73
2021/06/28 06:09:52;;;;;;;0.10;0.10;;;21.70;99.90;;;;;;4957522;29;20498;-73
2021/06/28 06:12:17;;;;;;;0.10;0.10;;;21.70;99.90;;;;;;4954816;28;20077;-73
2021/06/28 06:14:43;;;;;;;0.10;0.10;;;21.80;99.90;;;;;;4976590;28;20038;-73
2021/06/28 06:17:09;;;;;;;0.10;0.10;;;21.90;99.90;;;;;;4959185;28;20031;-74
2021/06/28 06:19:35;;;;;;;0.08;0.08;;;21.90;99.90;;;;;;4959116;28;20023;-73
2021/06/28 06:22:01;;;;;;;0.10;0.10;;;22.00;99.90;;;;;;4976800;28;20027;-74
2021/06/28 06:24:29;;;;;;;0.00;0.00;;;22.10;99.90;;;;;;4977562;28;20031;-74
2021/06/28 06:26:59;;;;;;;0.10;0.10;;;22.20;99.90;;;;;;4977246;28;20114;-73
2021/06/28 06:29:25;;;;;;;0.00;0.00;;;22.30;99.90;;;;;;4959612;28;20027;-75
2021/06/28 06:31:51;;;;;;;0.10;0.10;;;22.40;99.70;;;;;;4960507;28;20034;-74
2021/06/28 06:34:17;;;;;;;0.00;0.00;;;22.50;97.90;;;;;;4947904;28;20051;-74
2021/06/28 06:36:43;;;;;;;0.00;0.00;;;22.70;97.70;;;;;;4940759;28;20065;-75
2021/06/28 06:39:14;;;;;;;0.00;0.00;;;22.80;97.00;;;;;;4957536;28;20023;-73
2021/06/28 06:41:40;;;;;;;;;;;22.90;95.90;;;;;;4940312;28;20058;-76
2021/06/28 06:44:06;;;;;;;0.10;0.10;;;23.10;95.70;;;;;;4957304;28;19969;-76
2021/06/28 06:46:32;;;;;;;0.00;0.00;;;23.20;94.90;;;;;;4952473;28;20036;-75
2021/06/28 06:48:57;;;;;;;0.00;0.00;;;23.30;93.90;;;;;;4953062;29;20305;-76
2021/06/28 06:51:23;;;;;;;0.00;0.00;;;23.40;93.40;;;;;;4950763;28;20031;-76
2021/06/28 06:53:49;;;;;;;0.00;0.00;;;23.50;92.60;;;;;;4972986;28;20058;-76
2021/06/28 06:56:14;;;;;;;0.00;0.00;;;23.40;91.90;;;;;;4973641;28;20545;-72
2021/06/28 06:58:40;;;;;;;0.00;0.00;;;23.50;90.80;;;;;;4970730;28;20029;-73
2021/06/28 07:01:09;;;;;;;0.05;0.05;;;23.70;90.10;;;;;;4936036;29;20027;-74
2021/06/28 07:03:35;;;;;;;0.08;0.08;;;23.80;90.00;;;;;;4953401;29;20033;-73
2021/06/28 07:06:00;;;;;;;0.10;0.10;;;23.80;89.10;;;;;;5033005;28;20025;-73
2021/06/28 07:08:26;;;;;;;0.90;0.25;;;24.00;88.30;;;;;;4952934;28;20035;-73
2021/06/28 07:10:52;;;;;;;0.00;0.00;;;24.10;85.70;;;;;;4956600;28;20031;-73
2021/06/28 07:13:18;;;;;;;0.00;0.00;;;24.20;83.50;;;;;;4977271;28;20590;-74
2021/06/28 07:15:44;;;;;;;0.10;0.10;;;24.40;81.80;;;;;;4982533;28;20534;-74
2021/06/28 07:18:09;;;;;;;0.00;0.00;;;24.30;77.20;;;;;;4962552;28;20042;-73
2021/06/28 07:20:35;;;;;;;0.00;0.00;;;24.40;77.70;;;;;;4991058;28;20056;-73
2021/06/28 07:23:01;;;;;;;0.00;0.00;;;24.40;75.10;;;;;;5003407;28;20024;-73
2021/06/28 07:25:27;;;;;;;0.00;0.00;;;24.50;75.50;;;;;;4940265;28;20035;-73
2021/06/28 07:27:53;;;;;;;0.00;0.00;;;24.80;75.70;;;;;;4996150;28;20027;-73
2021/06/28 07:30:23;;;;;;;0.00;0.00;;;25.00;73.40;;;;;;4970924;28;20528;-73
2021/06/28 07:32:50;;;;;;;0.00;0.00;;;25.30;71.80;;;;;;5025933;28;20021;-74
2021/06/28 07:35:17;;;;;;;0.00;0.00;;;25.20;72.30;;;;;;5006915;28;20021;-73
2021/06/28 07:37:43;;;;;;;0.00;0.00;;;25.30;71.10;;;;;;4952306;28;20102;-73
2021/06/28 07:40:13;;;;;;;0.00;0.00;;;25.40;72.10;;;;;;5009886;28;20188;-75
2021/06/28 07:42:39;;;;;;;0.00;0.00;;;25.40;70.60;;;;;;5013352;28;20027;-75
2021/06/28 07:45:06;;;;;;;0.00;0.00;;;25.30;70.40;;;;;;5000061;28;20025;-72
2021/06/28 07:47:32;;;;;;;0.00;0.00;;;25.60;70.20;;;;;;4979459;28;20035;-73
2021/06/28 07:49:58;;;;;;;0.00;0.00;;;25.80;70.30;;;;;;4990559;28;20073;-73
2021/06/28 07:52:25;;;;;;;0.00;0.00;;;26.00;67.80;;;;;;5004516;28;20484;-76
2021/06/28 07:54:52;;;;;;;0.15;0.15;;;26.20;68.90;;;;;;4961620;28;20035;-76
2021/06/28 07:57:18;;;;;;;0.00;0.00;;;26.40;68.80;;;;;;4937018;28;20046;-73
2021/06/28 07:59:44;;;;;;;0.00;0.00;;;26.40;69.90;;;;;;5006213;28;20028;-73
2021/06/28 08:02:09;;;;;;;0.00;0.00;;;26.40;71.80;;;;;;4996017;28;20390;-73
2021/06/28 08:04:35;;;;;;;0.00;0.00;;;26.50;72.70;;;;;;4953265;28;20089;-73
2021/06/28 08:07:01;;;;;;;0.00;0.00;;;26.70;73.20;;;;;;4985957;28;20122;-73
2021/06/28 08:09:26;;;;;;;0.00;0.00;;;26.70;74.10;;;;;;4996336;28;20025;-74
2021/06/28 08:11:56;;;;;;;0.03;0.03;;;26.60;74.30;;;;;;4981895;28;20062;-73
2021/06/28 08:14:22;;;;;;;0.00;0.00;;;26.60;74.30;;;;;;5041397;28;20021;-74
2021/06/28 08:16:48;;;;;;;0.00;0.00;;;26.80;74.10;;;;;;4999456;28;20027;-74
2021/06/28 08:19:14;;;;;;;0.43;0.43;;;26.80;71.50;;;;;;5007894;28;20033;-74
2021/06/28 08:21:40;;;;;;;0.00;0.00;;;26.90;70.70;;;;;;4972385;28;20368;-74
2021/06/28 08:24:09;;;;;;;0.10;0.10;;;27.10;69.60;;;;;;4947881;28;20028;-74
2021/06/28 08:26:36;;;;;;;0.00;0.00;;;27.30;69.10;;;;;;4951281;28;20024;-74
2021/06/28 08:29:04;;;;;;;0.20;0.20;;;27.50;69.30;;;;;;4953070;28;20038;-74
2021/06/28 08:31:32;;;;;;;0.00;0.00;;;27.60;68.90;;;;;;4990932;28;20075;-74
2021/06/28 08:33:57;;;;;;;0.43;0.10;;;27.70;68.40;;;;;;4973013;28;20382;-74
2021/06/28 08:36:23;;;;;;;0.00;0.00;;;27.70;67.80;;;;;;4939686;28;20425;-74
2021/06/28 08:38:49;;;;;;;0.10;0.10;;;27.90;67.10;;;;;;4955632;28;20025;-74
2021/06/28 08:41:16;;;;;;;0.00;0.00;;;27.90;67.00;;;;;;5040881;28;20461;-73
2021/06/28 08:43:47;;;;;;;0.00;0.00;;;28.00;66.00;;;;;;4956886;28;20483;-74
2021/06/28 08:46:13;;;;;;;0.20;0.20;;;28.20;64.30;;;;;;4962552;28;20026;-74
2021/06/28 08:48:44;;;;;;;0.00;0.00;;;28.00;62.40;;;;;;4952802;28;20031;-74
2021/06/28 08:51:10;;;;;;;0.10;0.10;;;28.10;61.70;;;;;;4973480;28;20029;-74
2021/06/28 08:53:36;;;;;;;0.00;0.00;;;27.90;62.10;;;;;;4940940;28;20141;-74
2021/06/28 08:56:07;;;;;;;0.00;0.00;;;28.00;61.70;;;;;;4971523;28;20031;-74
2021/06/28 08:58:39;;;;;;;0.00;0.00;;;27.90;60.80;;;;;;4955321;28;20034;-74
2021/06/28 09:01:06;;;;;;;0.57;0.22;;;27.80;62.20;;;;;;4976122;28;20509;-74
2021/06/28 09:03:34;;;;;;;0.13;0.10;;;27.90;61.20;;;;;;4984612;28;20033;-74
2021/06/28 09:06:10;;;;;;;0.00;0.00;;;28.00;60.80;;;;;;5042286;28;20017;-74
2021/06/28 09:08:37;;;;;;;0.00;0.00;;;28.30;60.80;;;;;;4998525;28;20035;-74
2021/06/28 09:11:15;;;;;;;0.00;0.00;;;28.50;61.60;;;;;;4952352;28;20034;-74
2021/06/28 09:13:46;;;;;;;0.20;0.20;;;28.80;60.80;;;;;;5034147;28;20021;-74
2021/06/28 09:16:16;;;;;;;0.00;0.00;;;28.90;59.90;;;;;;5001668;28;20017;-74
2021/06/28 09:19:01;;;;;;;0.10;0.10;;;28.90;60.00;;;;;;4994560;28;20031;-74
2021/06/28 09:21:37;;;;;;;0.17;0.17;;;29.00;59.70;;;;;;4985442;28;20040;-74
2021/06/28 09:24:05;;;;;;;0.00;0.00;;;29.00;58.10;;;;;;4952750;28;20031;-74
2021/06/28 09:26:36;;;;;;;0.13;0.13;;;29.20;57.40;;;;;;4972421;28;20381;-74
2021/06/28 09:29:08;;;;;;;0.00;0.00;;;29.30;57.10;;;;;;4974419;28;20543;-74
2021/06/28 09:31:42;;;;;;;0.05;0.05;;;29.20;57.20;;;;;;4983412;28;20142;-74
2021/06/28 09:34:10;;;;;;;0.00;0.00;;;29.20;56.30;;;;;;4974939;28;20476;-74
2021/06/28 09:36:50;;;;;;;0.08;0.08;;;29.20;57.00;;;;;;4983141;28;20017;-74
2021/06/28 09:39:26;;;;;;;0.10;0.10;;;29.60;57.20;;;;;;4964235;28;20521;-74
2021/06/28 09:42:00;;;;;;;0.10;0.10;;;30.00;54.20;;;;;;4972995;28;20268;-74
2021/06/28 09:44:29;;;;;;;0.00;0.00;;;30.10;55.60;;;;;;5024705;28;20025;-74
2021/06/28 09:47:06;;;;;;;0.98;0.98;;;30.40;55.40;;;;;;4975132;28;20467;-74
2021/06/28 09:49:32;;;;;;;0.00;0.00;;;30.20;54.50;;;;;;4999396;28;20034;-74
2021/06/28 09:51:58;;;;;;;0.20;0.20;;;30.50;54.70;;;;;;4953368;28;20038;-74
2021/06/28 09:54:24;;;;;;;2.30;1.55;;;30.60;55.10;;;;;;5024725;28;20532;-78
2021/06/28 09:56:52;;;;;;;0.20;0.10;;;30.60;55.50;;;;;;4950000;28;20065;-74
2021/06/28 09:59:37;;;;;;;0.00;0.00;;;30.70;52.90;;;;;;4938485;28;20455;-74
2021/06/28 10:02:19;;;;;;;0.00;0.00;;;30.70;53.50;;;;;;4966908;28;20098;-74
2021/06/28 10:05:13;;;;;;;0.00;0.00;;;30.80;53.30;;;;;;5001012;28;20030;-74
2021/06/28 10:07:40;;;;;;;3.15;1.08;;;31.00;53.80;;;;;;4998124;28;20457;-74
2021/06/28 10:10:12;;;;;;;1.38;0.90;;;31.10;52.90;;;;;;5021135;28;20431;-73
2021/06/28 10:12:39;;;;;;;0.00;0.00;;;31.00;53.20;;;;;;4958853;28;20043;-74
2021/06/28 10:15:08;;;;;;;0.00;0.00;;;31.00;51.30;;;;;;5001948;28;20021;-74
2021/06/28 10:17:34;;;;;;;0.00;0.00;;;31.20;52.10;;;;;;5005622;28;20168;-74
2021/06/28 10:20:00;;;;;;;0.17;0.00;;;31.20;52.00;;;;;;5028683;28;20030;-74
2021/06/28 10:22:25;;;;;;;0.00;0.00;;;31.30;51.00;;;;;;5010640;28;20087;-74
2021/06/28 10:24:51;;;;;;;0.00;0.00;;;31.60;51.10;;;;;;5009708;28;20057;-74
2021/06/28 10:27:18;;;;;;;0.10;0.10;;;31.60;51.60;;;;;;5004153;28;20505;-74
2021/06/28 10:29:44;;;;;;;0.47;0.10;;;31.60;51.60;;;;;;5004759;28;20108;-74
2021/06/28 10:32:12;;;;;;;0.20;0.20;;;31.60;52.60;;;;;;5035368;28;20116;-74
2021/06/28 10:34:40;;;;;;;0.00;0.00;;;31.50;52.90;;;;;;4999340;28;20032;-74
2021/06/28 10:37:29;;;;;;;0.00;0.00;;;31.50;52.70;;;;;;4999701;28;20414;-74
2021/06/28 10:40:00;;;;;;;0.47;0.47;;;31.70;52.60;;;;;;4985785;28;20060;-74
2021/06/28 10:42:31;;;;;;;0.00;0.00;;;31.60;52.70;;;;;;4954691;28;20023;-74
2021/06/28 10:44:57;;;;;;;;;;;31.80;53.20;;;;;;4987330;28;20032;-74
2021/06/28 10:47:23;;;;;;;0.22;0.22;;;31.70;52.40;;;;;;5032424;28;19911;-74
2021/06/28 10:49:52;;;;;;;0.22;0.20;;;31.60;51.00;;;;;;5002796;28;20034;-74
2021/06/28 10:52:37;;;;;;;0.00;0.00;;;31.80;48.40;;;;;;4959498;28;20034;-74
2021/06/28 10:55:28;;;;;;;0.00;0.00;;;32.20;50.00;;;;;;5007757;28;20018;-74
2021/06/28 10:57:54;;;;;;;0.10;0.10;;;32.40;49.20;;;;;;5000638;28;20094;-74
2021/06/28 11:00:49;;;;;;;0.13;0.13;;;32.50;50.10;;;;;;5001919;28;20447;-74
2021/06/28 11:03:23;;;;;;;0.10;0.10;;;32.40;50.50;;;;;;4978784;28;20423;-74
2021/06/28 11:06:25;;;;;;;0.95;0.85;;;32.50;50.30;;;;;;5027759;28;20043;-74
2021/06/28 11:09:02;;;;;;;0.13;0.13;;;32.40;50.60;;;;;;4982752;28;20026;-74
2021/06/28 11:11:43;;;;;;;0.30;0.30;;;32.10;50.90;;;;;;5024463;22;20140;-76
2021/06/28 11:14:30;;;;;;;0.00;0.00;;;32.20;50.30;;;;;;4936220;28;20024;-75
2021/06/28 11:17:09;;;;;;;0.00;0.00;;;32.30;50.00;;;;;;4977079;28;20033;-75
2021/06/28 11:19:46;;;;;;;0.20;0.20;;;32.30;51.00;;;;;;4948307;28;20025;-75
2021/06/28 11:22:35;;;;;;;1.55;0.52;;;32.40;50.40;;;;;;4953216;28;20056;-75
2021/06/28 11:25:11;;;;;;;0.10;0.10;;;32.20;50.70;;;;;;4978750;28;20043;-76
2021/06/28 11:28:09;;;;;;;0.10;0.10;;;32.40;51.10;;;;;;4989463;28;20037;-76
2021/06/28 11:31:04;;;;;;;0.52;0.45;;;32.40;50.20;;;;;;4956959;28;20354;-76
2021/06/28 11:33:37;;;;;;;0.10;0.10;;;32.40;50.50;;;;;;4983357;28;20032;-75
2021/06/28 11:36:05;;;;;;;0.00;0.00;;;32.50;50.00;;;;;;4951566;28;20112;-76
2021/06/28 11:38:34;;;;;;;0.10;0.10;;;32.30;48.60;;;;;;4987347;28;20506;-76
2021/06/28 11:41:02;;;;;;;0.70;0.70;;;32.00;48.70;;;;;;4959398;28;20031;-76
2021/06/28 11:43:40;;;;;;;0.38;0.20;;;31.90;49.00;;;;;;4980991;28;20042;-76
2021/06/28 11:46:18;;;;;;;1.10;1.10;;;31.90;48.40;;;;;;4972323;28;20021;-76
2021/06/28 11:48:55;;;;;;;0.05;0.05;;;31.70;48.70;;;;;;4980123;28;20066;-76
2021/06/28 11:51:33;;;;;;;0.10;0.10;;;31.70;49.40;;;;;;4958425;28;20076;-76
2021/06/28 11:54:20;;;;;;;0.05;0.05;;;31.60;49.30;;;;;;4964388;28;20407;-75
2021/06/28 11:56:54;;;;;;;0.10;0.10;;;31.30;51.00;;;;;;4970149;28;20428;-76
2021/06/28 11:59:21;;;;;;;0.00;0.00;;;31.50;50.70;;;;;;4975247;28;20101;-75
2021/06/28 12:01:54;;;;;;;0.52;0.52;;;31.60;51.10;;;;;;4953406;28;20108;-75
2021/06/28 12:04:22;;;;;;;0.10;0.10;;;31.60;50.70;;;;;;4990319;28;20334;-76
2021/06/28 12:06:50;;;;;;;0.00;0.00;;;31.50;50.50;;;;;;4973967;28;20475;-76
2021/06/28 12:09:17;;;;;;;0.63;0.63;;;31.50;50.70;;;;;;4954843;28;20030;-78
2021/06/28 12:11:49;;;;;;;0.00;0.00;;;31.40;50.70;;;;;;4917445;28;20417;-75
2021/06/28 12:14:31;;;;;;;0.00;0.00;;;31.30;51.60;;;;;;4976074;28;20019;-76
2021/06/28 12:16:57;;;;;;;0.00;0.00;;;31.40;51.70;;;;;;4963518;28;20114;-75
2021/06/28 12:19:24;;;;;;;0.20;0.20;;;31.30;51.40;;;;;;4980039;28;20081;-76
2021/06/28 12:21:50;;;;;;;0.00;0.00;;;31.00;51.90;;;;;;4923627;28;20028;-75
2021/06/28 12:24:18;;;;;;;0.00;0.00;;;30.80;53.40;;;;;;4977884;28;20047;-75
2021/06/28 12:27:07;;;;;;;0.00;0.00;;;30.70;52.90;;;;;;4974296;28;20032;-76
2021/06/28 12:29:35;;;;;;;0.32;0.32;;;30.80;53.30;;;;;;4987002;28;20115;-76
2021/06/28 12:32:10;;;;;;;0.20;0.20;;;30.70;53.10;;;;;;4975982;28;20521;-75
2021/06/28 12:34:37;;;;;;;0.40;0.25;;;30.80;53.20;;;;;;5001868;28;20029;-76
2021/06/28 12:37:03;;;;;;;0.00;0.00;;;30.80;53.40;;;;;;4933190;28;20024;-75
2021/06/28 12:39:30;;;;;;;0.03;0.03;;;30.80;53.50;;;;;;4963594;28;20024;-75
2021/06/28 12:42:18;;;;;;;0.00;0.00;;;30.80;53.20;;;;;;4964301;28;20028;-76
2021/06/28 12:44:45;;;;;;;0.25;0.25;;;30.70;53.70;;;;;;4994122;28;20442;-76
2021/06/28 12:47:20;;;;;;;0.20;0.20;;;30.50;53.20;;;;;;4975987;28;20416;-76
2021/06/28 12:49:47;;;;;;;0.00;0.00;;;30.50;53.80;;;;;;4976521;28;20610;-76
2021/06/28 12:52:31;;;;;;;0.63;0.40;;;30.40;53.90;;;;;;4996110;28;20474;-76
2021/06/28 12:55:15;;;;;;;0.00;0.00;;;30.50;53.40;;;;;;4955570;28;20056;-76